sensor_id;sensor_type;location;lat;lon;timestamp;pressure;altitude;pressure_sealevel;temperature;humidity
32033;BME280;31720;52.638;9.216;2023-02-19T00:00:05;101112.19;;;8.06;100.00
32033;BME280;31720;52.638;9.216;2023-02-19T00:03:08;101109.53;;;8.08;100.00
32033;BME280;31720;52.638;9.216;2023-02-19T00:06:10;101104.34;;;8.06;100.00
32033;BME280;31720;52.638;9.216;2023-02-19T00:09:15;101110.50;;;8.05;100.00
32033;BME280;31720;52.638;9.216;2023-02-19T00:12:17;101107.03;;;8.05;100.00
32033;BME280;31720;52.638;9.216;2023-02-19T00:15:18;101114.81;;;8.06;100.00
32033;BME280;31720;52.638;9.216;2023-02-19T00:18:20;101107.88;;;8.05;100.00
32033;BME280;31720;52.638;9.216;2023-02-19T00:21:21;101095.94;;;7.98;100.00
32033;BME280;31720;52.638;9.216;2023-02-19T00:24:24;101098.38;;;8.03;100.00
32033;BME280;31720;52.638;9.216;2023-02-19T00:27:25;101103.56;;;8.04;100.00
32033;BME280;31720;52.638;9.216;2023-02-19T00:30:27;101101.56;;;8.11;100.00
32033;BME280;31720;52.638;9.216;2023-02-19T00:33:28;101100.78;;;8.09;100.00
32033;BME280;31720;52.638;9.216;2023-02-19T00:36:31;101089.56;;;8.05;100.00
32033;BME280;31720;52.638;9.216;2023-02-19T00:39:35;101085.28;;;8.03;100.00
32033;BME280;31720;52.638;9.216;2023-02-19T00:42:36;101077.44;;;8.03;100.00
32033;BME280;31720;52.638;9.216;2023-02-19T00:45:38;101086.28;;;8.00;100.00
32033;BME280;31720;52.638;9.216;2023-02-19T00:48:39;101087.16;;;7.99;100.00
32033;BME280;31720;52.638;9.216;2023-02-19T00:51:40;101077.59;;;7.98;100.00
32033;BME280;31720;52.638;9.216;2023-02-19T00:54:43;101070.84;;;7.93;100.00
32033;BME280;31720;52.638;9.216;2023-02-19T00:57:44;101074.31;;;7.93;100.00
32033;BME280;31720;52.638;9.216;2023-02-19T01:00:46;101076.81;;;7.96;100.00
32033;BME280;31720;52.638;9.216;2023-02-19T01:03:47;101069.88;;;7.95;100.00
32033;BME280;31720;52.638;9.216;2023-02-19T01:06:49;101067.19;;;7.97;100.00
32033;BME280;31720;52.638;9.216;2023-02-19T01:09:51;101070.38;;;8.05;100.00
32033;BME280;31720;52.638;9.216;2023-02-19T01:12:53;101062.53;;;8.05;100.00
32033;BME280;31720;52.638;9.216;2023-02-19T01:16:01;101056.22;;;8.10;100.00
32033;BME280;31720;52.638;9.216;2023-02-19T01:19:03;101060.50;;;8.13;100.00
32033;BME280;31720;52.638;9.216;2023-02-19T01:22:04;101058.66;;;8.15;100.00
32033;BME280;31720;52.638;9.216;2023-02-19T01:25:07;101060.25;;;8.19;100.00
32033;BME280;31720;52.638;9.216;2023-02-19T01:28:10;101058.41;;;8.21;100.00
32033;BME280;31720;52.638;9.216;2023-02-19T01:31:13;101053.56;;;8.34;100.00
32033;BME280;31720;52.638;9.216;2023-02-19T01:34:15;101057.72;;;8.39;100.00
32033;BME280;31720;52.638;9.216;2023-02-19T01:37:16;101056.84;;;8.41;100.00
32033;BME280;31720;52.638;9.216;2023-02-19T01:40:19;101057.69;;;8.41;100.00
32033;BME280;31720;52.638;9.216;2023-02-19T01:43:20;101053.41;;;8.38;100.00
32033;BME280;31720;52.638;9.216;2023-02-19T01:46:24;101059.50;;;8.39;100.00
32033;BME280;31720;52.638;9.216;2023-02-19T01:49:27;101055.06;;;8.41;100.00
32033;BME280;31720;52.638;9.216;2023-02-19T01:52:31;101045.78;;;8.32;100.00
32033;BME280;31720;52.638;9.216;2023-02-19T01:55:36;101045.63;;;8.37;100.00
32033;BME280;31720;52.638;9.216;2023-02-19T01:58:38;101049.13;;;8.36;100.00
32033;BME280;31720;52.638;9.216;2023-02-19T02:01:40;101040.38;;;8.35;100.00
32033;BME280;31720;52.638;9.216;2023-02-19T02:04:42;101040.38;;;8.37;100.00
32033;BME280;31720;52.638;9.216;2023-02-19T02:07:43;101041.28;;;8.36;100.00
32033;BME280;31720;52.638;9.216;2023-02-19T02:11:04;101036.72;;;8.41;100.00
32033;BME280;31720;52.638;9.216;2023-02-19T02:14:05;101061.16;;;8.42;100.00
32033;BME280;31720;52.638;9.216;2023-02-19T02:17:14;101081.88;;;8.01;100.00
32033;BME280;31720;52.638;9.216;2023-02-19T02:20:31;101093.50;;;7.45;100.00
32033;BME280;31720;52.638;9.216;2023-02-19T02:23:42;101085.94;;;7.11;100.00
32033;BME280;31720;52.638;9.216;2023-02-19T02:26:57;101082.41;;;6.85;100.00
32033;BME280;31720;52.638;9.216;2023-02-19T02:30:14;101081.28;;;6.68;100.00
32033;BME280;31720;52.638;9.216;2023-02-19T02:33:23;101074.72;;;6.54;100.00
32033;BME280;31720;52.638;9.216;2023-02-19T02:36:29;101084.78;;;6.39;100.00
32033;BME280;31720;52.638;9.216;2023-02-19T02:39:31;101092.69;;;6.35;100.00
32033;BME280;31720;52.638;9.216;2023-02-19T02:42:33;101101.41;;;6.34;100.00
32033;BME280;31720;52.638;9.216;2023-02-19T02:45:36;101100.72;;;6.29;100.00
32033;BME280;31720;52.638;9.216;2023-02-19T02:48:41;101104.31;;;6.25;100.00
32033;BME280;31720;52.638;9.216;2023-02-19T02:51:49;101113.00;;;6.26;100.00
32033;BME280;31720;52.638;9.216;2023-02-19T02:54:54;101116.38;;;6.29;100.00
32033;BME280;31720;52.638;9.216;2023-02-19T02:58:04;101118.00;;;6.33;100.00
32033;BME280;31720;52.638;9.216;2023-02-19T03:01:08;101129.63;;;6.22;100.00
32033;BME280;31720;52.638;9.216;2023-02-19T03:04:32;101130.81;;;6.12;100.00
32033;BME280;31720;52.638;9.216;2023-02-19T03:07:38;101123.94;;;6.09;100.00
32033;BME280;31720;52.638;9.216;2023-02-19T03:10:44;101124.75;;;6.11;100.00
32033;BME280;31720;52.638;9.216;2023-02-19T03:13:50;101120.25;;;6.16;100.00
32033;BME280;31720;52.638;9.216;2023-02-19T03:17:16;101127.22;;;6.16;100.00
32033;BME280;31720;52.638;9.216;2023-02-19T03:20:39;101127.41;;;6.09;100.00
32033;BME280;31720;52.638;9.216;2023-02-19T03:23:44;101129.25;;;6.06;100.00
32033;BME280;31720;52.638;9.216;2023-02-19T03:27:05;101133.63;;;6.04;100.00
32033;BME280;31720;52.638;9.216;2023-02-19T03:30:11;101126.16;;;5.92;100.00
32033;BME280;31720;52.638;9.216;2023-02-19T03:33:16;101140.91;;;5.93;100.00
32033;BME280;31720;52.638;9.216;2023-02-19T03:36:19;101145.50;;;5.83;100.00
32033;BME280;31720;52.638;9.216;2023-02-19T03:39:25;101155.19;;;5.78;100.00
32033;BME280;31720;52.638;9.216;2023-02-19T03:42:35;101149.94;;;5.79;100.00
32033;BME280;31720;52.638;9.216;2023-02-19T03:45:44;101163.03;;;5.76;100.00
32033;BME280;31720;52.638;9.216;2023-02-19T03:48:52;101172.31;;;5.88;100.00
32033;BME280;31720;52.638;9.216;2023-02-19T03:52:00;101176.91;;;5.78;100.00
32033;BME280;31720;52.638;9.216;2023-02-19T03:55:07;101170.78;;;5.79;100.00
32033;BME280;31720;52.638;9.216;2023-02-19T03:58:13;101173.34;;;5.81;100.00
32033;BME280;31720;52.638;9.216;2023-02-19T04:01:21;101190.13;;;5.72;100.00
32033;BME280;31720;52.638;9.216;2023-02-19T04:04:27;101197.13;;;5.70;100.00
32033;BME280;31720;52.638;9.216;2023-02-19T04:07:31;101202.22;;;5.75;100.00
32033;BME280;31720;52.638;9.216;2023-02-19T04:10:35;101213.69;;;5.68;100.00
32033;BME280;31720;52.638;9.216;2023-02-19T04:13:43;101225.00;;;5.68;100.00
32033;BME280;31720;52.638;9.216;2023-02-19T04:16:50;101229.59;;;5.57;100.00
32033;BME280;31720;52.638;9.216;2023-02-19T04:19:57;101241.22;;;5.45;100.00
32033;BME280;31720;52.638;9.216;2023-02-19T04:23:00;101264.78;;;5.39;100.00
32033;BME280;31720;52.638;9.216;2023-02-19T04:26:03;101273.69;;;5.30;100.00
32033;BME280;31720;52.638;9.216;2023-02-19T04:29:07;101283.34;;;5.25;100.00
32033;BME280;31720;52.638;9.216;2023-02-19T04:32:09;101280.75;;;5.25;100.00
32033;BME280;31720;52.638;9.216;2023-02-19T04:35:12;101282.66;;;5.19;100.00
32033;BME280;31720;52.638;9.216;2023-02-19T04:38:14;101278.50;;;5.10;100.00
32033;BME280;31720;52.638;9.216;2023-02-19T04:41:15;101280.97;;;5.16;100.00
32033;BME280;31720;52.638;9.216;2023-02-19T04:44:17;101283.63;;;5.13;100.00
32033;BME280;31720;52.638;9.216;2023-02-19T04:47:18;101292.28;;;5.15;100.00
32033;BME280;31720;52.638;9.216;2023-02-19T04:50:21;101298.44;;;5.11;100.00
32033;BME280;31720;52.638;9.216;2023-02-19T04:53:22;101308.00;;;5.11;100.00
32033;BME280;31720;52.638;9.216;2023-02-19T04:56:23;101317.59;;;5.08;100.00
32033;BME280;31720;52.638;9.216;2023-02-19T04:59:25;101313.31;;;5.06;100.00
32033;BME280;31720;52.638;9.216;2023-02-19T05:02:26;101323.22;;;4.89;100.00
32033;BME280;31720;52.638;9.216;2023-02-19T05:05:29;101325.06;;;4.83;100.00
32033;BME280;31720;52.638;9.216;2023-02-19T05:08:30;101341.69;;;4.76;100.00
32033;BME280;31720;52.638;9.216;2023-02-19T05:11:31;101347.84;;;4.72;100.00
32033;BME280;31720;52.638;9.216;2023-02-19T05:14:33;101352.19;;;4.72;100.00
32033;BME280;31720;52.638;9.216;2023-02-19T05:17:34;101359.97;;;4.75;100.00
32033;BME280;31720;52.638;9.216;2023-02-19T05:20:37;101360.81;;;4.75;100.00
32033;BME280;31720;52.638;9.216;2023-02-19T05:23:38;101377.53;;;4.64;100.00
32033;BME280;31720;52.638;9.216;2023-02-19T05:26:39;101375.25;;;4.47;100.00
32033;BME280;31720;52.638;9.216;2023-02-19T05:29:41;101382.31;;;4.39;100.00
32033;BME280;31720;52.638;9.216;2023-02-19T05:32:42;101389.22;;;4.41;100.00
32033;BME280;31720;52.638;9.216;2023-02-19T05:35:47;101400.50;;;4.40;100.00
32033;BME280;31720;52.638;9.216;2023-02-19T05:38:51;101406.63;;;4.38;100.00
32033;BME280;31720;52.638;9.216;2023-02-19T05:41:53;101409.47;;;4.24;100.00
32033;BME280;31720;52.638;9.216;2023-02-19T05:44:55;101418.94;;;4.26;100.00
32033;BME280;31720;52.638;9.216;2023-02-19T05:47:56;101420.81;;;4.20;100.00
32033;BME280;31720;52.638;9.216;2023-02-19T05:51:01;101430.50;;;4.08;100.00
32033;BME280;31720;52.638;9.216;2023-02-19T05:54:03;101442.72;;;4.05;100.00
32033;BME280;31720;52.638;9.216;2023-02-19T05:57:04;101438.22;;;4.13;100.00
32033;BME280;31720;52.638;9.216;2023-02-19T06:00:07;101453.69;;;4.24;100.00
32033;BME280;31720;52.638;9.216;2023-02-19T06:03:08;101458.09;;;4.17;100.00
32033;BME280;31720;52.638;9.216;2023-02-19T06:06:12;101459.84;;;4.18;100.00
32033;BME280;31720;52.638;9.216;2023-02-19T06:09:13;101468.47;;;4.20;100.00
32033;BME280;31720;52.638;9.216;2023-02-19T06:12:14;101477.84;;;4.30;100.00
32033;BME280;31720;52.638;9.216;2023-02-19T06:15:16;101487.28;;;4.38;100.00
32033;BME280;31720;52.638;9.216;2023-02-19T06:18:17;101490.75;;;4.38;100.00
32033;BME280;31720;52.638;9.216;2023-02-19T06:21:20;101495.03;;;4.42;100.00
32033;BME280;31720;52.638;9.216;2023-02-19T06:24:21;101507.25;;;4.37;100.00
32033;BME280;31720;52.638;9.216;2023-02-19T06:27:22;101508.94;;;4.40;100.00
32033;BME280;31720;52.638;9.216;2023-02-19T06:30:24;101514.31;;;4.29;100.00
32033;BME280;31720;52.638;9.216;2023-02-19T06:33:25;101516.03;;;4.31;100.00
32033;BME280;31720;52.638;9.216;2023-02-19T06:36:28;101521.25;;;4.28;100.00
32033;BME280;31720;52.638;9.216;2023-02-19T06:39:30;101534.22;;;4.30;100.00
32033;BME280;31720;52.638;9.216;2023-02-19T06:42:31;101537.72;;;4.29;100.00
32033;BME280;31720;52.638;9.216;2023-02-19T06:45:32;101558.56;;;4.27;100.00
32033;BME280;31720;52.638;9.216;2023-02-19T06:48:34;101569.03;;;4.21;100.00
32033;BME280;31720;52.638;9.216;2023-02-19T06:51:37;101570.69;;;4.27;100.00
32033;BME280;31720;52.638;9.216;2023-02-19T06:54:38;101576.75;;;4.29;100.00
32033;BME280;31720;52.638;9.216;2023-02-19T06:57:39;101592.53;;;4.18;100.00
32033;BME280;31720;52.638;9.216;2023-02-19T07:00:41;101614.28;;;4.11;100.00
32033;BME280;31720;52.638;9.216;2023-02-19T07:03:42;101618.59;;;4.12;100.00
32033;BME280;31720;52.638;9.216;2023-02-19T07:06:45;101627.16;;;4.20;100.00
32033;BME280;31720;52.638;9.216;2023-02-19T07:09:46;101634.97;;;4.20;100.00
32033;BME280;31720;52.638;9.216;2023-02-19T07:12:47;101642.66;;;4.29;100.00
32033;BME280;31720;52.638;9.216;2023-02-19T07:15:49;101654.84;;;4.27;100.00
32033;BME280;31720;52.638;9.216;2023-02-19T07:18:51;101659.97;;;4.30;100.00
32033;BME280;31720;52.638;9.216;2023-02-19T07:21:53;101657.31;;;4.37;100.00
32033;BME280;31720;52.638;9.216;2023-02-19T07:24:54;101671.25;;;4.32;100.00
32033;BME280;31720;52.638;9.216;2023-02-19T07:27:56;101665.31;;;4.20;100.00
32033;BME280;31720;52.638;9.216;2023-02-19T07:30:59;101680.19;;;4.08;100.00
32033;BME280;31720;52.638;9.216;2023-02-19T07:34:00;101682.72;;;4.13;100.00
32033;BME280;31720;52.638;9.216;2023-02-19T07:37:03;101685.34;;;4.13;100.00
32033;BME280;31720;52.638;9.216;2023-02-19T07:40:05;101692.38;;;4.06;100.00
32033;BME280;31720;52.638;9.216;2023-02-19T07:43:07;101700.22;;;4.02;100.00
32033;BME280;31720;52.638;9.216;2023-02-19T07:46:10;101702.72;;;4.08;100.00
32033;BME280;31720;52.638;9.216;2023-02-19T07:49:12;101710.50;;;4.11;100.00
32033;BME280;31720;52.638;9.216;2023-02-19T07:52:14;101712.06;;;4.27;100.00
32033;BME280;31720;52.638;9.216;2023-02-19T07:55:16;101722.53;;;4.23;100.00
32033;BME280;31720;52.638;9.216;2023-02-19T07:58:17;101724.16;;;4.30;100.00
32033;BME280;31720;52.638;9.216;2023-02-19T08:01:20;101726.72;;;4.36;100.00
32033;BME280;31720;52.638;9.216;2023-02-19T08:04:43;101734.38;;;4.47;100.00
32033;BME280;31720;52.638;9.216;2023-02-19T08:07:46;101730.94;;;4.43;100.00
32033;BME280;31720;52.638;9.216;2023-02-19T08:10:47;101738.75;;;4.43;100.00
32033;BME280;31720;52.638;9.216;2023-02-19T08:14:06;101735.28;;;4.46;100.00
32033;BME280;31720;52.638;9.216;2023-02-19T08:17:07;101748.22;;;4.49;100.00
32033;BME280;31720;52.638;9.216;2023-02-19T08:20:09;101754.44;;;4.39;100.00
32033;BME280;31720;52.638;9.216;2023-02-19T08:23:12;101757.88;;;4.39;100.00
32033;BME280;31720;52.638;9.216;2023-02-19T08:26:13;101750.94;;;4.41;100.00
32033;BME280;31720;52.638;9.216;2023-02-19T08:29:15;101749.09;;;4.49;100.00
32033;BME280;31720;52.638;9.216;2023-02-19T08:32:16;101752.53;;;4.53;100.00
32033;BME280;31720;52.638;9.216;2023-02-19T08:35:17;101756.00;;;4.52;100.00
32033;BME280;31720;52.638;9.216;2023-02-19T08:38:20;101760.31;;;4.53;100.00
32033;BME280;31720;52.638;9.216;2023-02-19T08:41:21;101746.50;;;4.48;100.00
32033;BME280;31720;52.638;9.216;2023-02-19T08:44:23;101762.00;;;4.58;100.00
32033;BME280;31720;52.638;9.216;2023-02-19T08:47:24;101778.41;;;4.65;100.00
32033;BME280;31720;52.638;9.216;2023-02-19T08:50:25;101781.97;;;4.58;100.00
32033;BME280;31720;52.638;9.216;2023-02-19T08:53:29;101782.97;;;4.46;100.00
32033;BME280;31720;52.638;9.216;2023-02-19T08:56:31;101788.28;;;4.37;100.00
32033;BME280;31720;52.638;9.216;2023-02-19T08:59:32;101802.06;;;4.44;100.00
32033;BME280;31720;52.638;9.216;2023-02-19T09:02:33;101811.72;;;4.37;100.00
32033;BME280;31720;52.638;9.216;2023-02-19T09:05:36;101814.25;;;4.42;100.00
32033;BME280;31720;52.638;9.216;2023-02-19T09:08:39;101815.00;;;4.54;100.00
32033;BME280;31720;52.638;9.216;2023-02-19T09:11:40;101815.81;;;4.60;100.00
32033;BME280;31720;52.638;9.216;2023-02-19T09:14:41;101812.34;;;4.57;100.00
32033;BME280;31720;52.638;9.216;2023-02-19T09:17:42;101818.34;;;4.63;100.00
32033;BME280;31720;52.638;9.216;2023-02-19T09:20:44;101818.28;;;4.69;100.00
32033;BME280;31720;52.638;9.216;2023-02-19T09:23:46;101822.56;;;4.74;100.00
32033;BME280;31720;52.638;9.216;2023-02-19T09:26:48;101826.81;;;4.80;100.00
32033;BME280;31720;52.638;9.216;2023-02-19T09:29:49;101846.63;;;4.93;100.00
32033;BME280;31720;52.638;9.216;2023-02-19T09:32:51;101847.34;;;5.06;100.00
32033;BME280;31720;52.638;9.216;2023-02-19T09:35:52;101840.41;;;5.03;100.00
32033;BME280;31720;52.638;9.216;2023-02-19T09:38:55;101843.09;;;5.00;100.00
32033;BME280;31720;52.638;9.216;2023-02-19T09:41:57;101852.53;;;5.07;100.00
32033;BME280;31720;52.638;9.216;2023-02-19T09:45:03;101858.63;;;5.06;100.00
32033;BME280;31720;52.638;9.216;2023-02-19T09:48:05;101871.59;;;5.11;100.00
32033;BME280;31720;52.638;9.216;2023-02-19T09:51:09;101894.09;;;5.18;100.00
32033;BME280;31720;52.638;9.216;2023-02-19T09:54:16;101904.63;;;5.09;100.00
32033;BME280;31720;52.638;9.216;2023-02-19T09:57:20;101899.41;;;5.11;100.00
32033;BME280;31720;52.638;9.216;2023-02-19T10:00:23;101910.75;;;5.05;100.00
32033;BME280;31720;52.638;9.216;2023-02-19T10:03:27;101917.72;;;5.03;100.00
32033;BME280;31720;52.638;9.216;2023-02-19T10:06:32;101926.25;;;5.16;100.00
32033;BME280;31720;52.638;9.216;2023-02-19T10:09:36;101935.53;;;5.38;100.00
32033;BME280;31720;52.638;9.216;2023-02-19T10:12:40;101934.69;;;5.38;100.00
32033;BME280;31720;52.638;9.216;2023-02-19T10:15:45;101945.06;;;5.39;100.00
32033;BME280;31720;52.638;9.216;2023-02-19T10:18:47;101957.41;;;5.28;100.00
32033;BME280;31720;52.638;9.216;2023-02-19T10:21:49;101961.66;;;5.33;100.00
32033;BME280;31720;52.638;9.216;2023-02-19T10:24:53;101957.22;;;5.42;100.00
32033;BME280;31720;52.638;9.216;2023-02-19T10:27:56;101966.63;;;5.53;100.00
32033;BME280;31720;52.638;9.216;2023-02-19T10:30:59;101967.38;;;5.62;100.00
32033;BME280;31720;52.638;9.216;2023-02-19T10:34:01;101982.81;;;5.78;100.00
32033;BME280;31720;52.638;9.216;2023-02-19T10:37:03;101980.31;;;5.71;100.00
32033;BME280;31720;52.638;9.216;2023-02-19T10:40:16;101971.63;;;5.70;100.00
32033;BME280;31720;52.638;9.216;2023-02-19T10:43:21;101969.75;;;5.80;100.00
32033;BME280;31720;52.638;9.216;2023-02-19T10:46:26;101971.44;;;5.84;100.00
32033;BME280;31720;52.638;9.216;2023-02-19T10:49:31;101967.03;;;5.88;100.00
32033;BME280;31720;52.638;9.216;2023-02-19T10:52:34;101954.81;;;5.91;100.00
32033;BME280;31720;52.638;9.216;2023-02-19T10:55:37;101953.97;;;5.92;100.00
32033;BME280;31720;52.638;9.216;2023-02-19T10:58:40;101958.03;;;6.10;100.00
32033;BME280;31720;52.638;9.216;2023-02-19T11:01:54;101966.81;;;6.06;100.00
32033;BME280;31720;52.638;9.216;2023-02-19T11:05:15;101983.41;;;6.00;100.00
32033;BME280;31720;52.638;9.216;2023-02-19T11:08:20;102000.75;;;6.03;100.00
32033;BME280;31720;52.638;9.216;2023-02-19T11:11:30;102012.84;;;6.10;100.00
32033;BME280;31720;52.638;9.216;2023-02-19T11:14:33;102018.00;;;6.15;100.00
32033;BME280;31720;52.638;9.216;2023-02-19T11:17:35;102011.22;;;6.01;100.00
32033;BME280;31720;52.638;9.216;2023-02-19T11:20:37;102010.38;;;6.01;100.00
32033;BME280;31720;52.638;9.216;2023-02-19T11:23:43;102005.78;;;6.17;100.00
32033;BME280;31720;52.638;9.216;2023-02-19T11:26:47;102010.69;;;6.38;100.00
32033;BME280;31720;52.638;9.216;2023-02-19T11:29:49;102006.44;;;6.31;100.00
32033;BME280;31720;52.638;9.216;2023-02-19T11:32:50;102012.75;;;6.16;100.00
32033;BME280;31720;52.638;9.216;2023-02-19T11:35:57;102014.56;;;6.11;100.00
32033;BME280;31720;52.638;9.216;2023-02-19T11:39:17;102013.59;;;6.17;100.00
32033;BME280;31720;52.638;9.216;2023-02-19T11:42:29;102011.00;;;6.17;100.00
32033;BME280;31720;52.638;9.216;2023-02-19T11:45:38;102011.91;;;6.14;100.00
32033;BME280;31720;52.638;9.216;2023-02-19T11:48:50;102000.31;;;6.33;100.00
32033;BME280;31720;52.638;9.216;2023-02-19T11:52:05;101983.44;;;6.53;100.00
32033;BME280;31720;52.638;9.216;2023-02-19T11:55:16;101982.41;;;6.65;100.00
32033;BME280;31720;52.638;9.216;2023-02-19T11:58:44;101985.47;;;6.88;100.00
32033;BME280;31720;52.638;9.216;2023-02-19T12:02:13;101987.00;;;7.00;100.00
32033;BME280;31720;52.638;9.216;2023-02-19T12:05:26;101981.69;;;7.03;100.00
32033;BME280;31720;52.638;9.216;2023-02-19T12:08:54;101989.19;;;7.21;100.00
32033;BME280;31720;52.638;9.216;2023-02-19T12:12:17;101988.94;;;7.33;100.00
32033;BME280;31720;52.638;9.216;2023-02-19T12:15:37;101984.25;;;7.49;100.00
32033;BME280;31720;52.638;9.216;2023-02-19T12:18:56;101989.66;;;7.42;100.00
32033;BME280;31720;52.638;9.216;2023-02-19T12:22:13;101994.47;;;7.61;100.00
32033;BME280;31720;52.638;9.216;2023-02-19T12:25:35;102006.38;;;7.76;100.00
32033;BME280;31720;52.638;9.216;2023-02-19T12:29:05;102005.34;;;7.42;100.00
32033;BME280;31720;52.638;9.216;2023-02-19T12:32:18;102008.88;;;7.39;100.00
32033;BME280;31720;52.638;9.216;2023-02-19T12:35:42;102001.34;;;7.24;100.00
32033;BME280;31720;52.638;9.216;2023-02-19T12:38:52;102002.75;;;7.42;100.00
32033;BME280;31720;52.638;9.216;2023-02-19T12:42:02;102007.69;;;7.55;100.00
32033;BME280;31720;52.638;9.216;2023-02-19T12:45:16;102009.34;;;7.59;100.00
32033;BME280;31720;52.638;9.216;2023-02-19T12:48:25;102004.13;;;7.58;100.00
32033;BME280;31720;52.638;9.216;2023-02-19T12:51:35;102015.34;;;7.65;100.00
32033;BME280;31720;52.638;9.216;2023-02-19T12:54:40;102023.28;;;7.60;100.00
32033;BME280;31720;52.638;9.216;2023-02-19T12:57:42;102013.84;;;7.53;100.00
32033;BME280;31720;52.638;9.216;2023-02-19T13:00:46;102015.19;;;7.72;100.00
32033;BME280;31720;52.638;9.216;2023-02-19T13:03:57;102020.16;;;7.84;100.00
32033;BME280;31720;52.638;9.216;2023-02-19T13:07:04;102014.84;;;7.87;100.00
32033;BME280;31720;52.638;9.216;2023-02-19T13:10:24;102029.25;;;7.67;100.00
32033;BME280;31720;52.638;9.216;2023-02-19T13:13:30;102027.19;;;7.41;100.00
32033;BME280;31720;52.638;9.216;2023-02-19T13:16:36;102036.97;;;7.29;100.00
32033;BME280;31720;52.638;9.216;2023-02-19T13:19:41;102027.41;;;7.28;100.00
32033;BME280;31720;52.638;9.216;2023-02-19T13:22:50;102020.63;;;7.61;100.00
32033;BME280;31720;52.638;9.216;2023-02-19T13:26:24;102020.06;;;7.89;100.00
32033;BME280;31720;52.638;9.216;2023-02-19T13:29:42;102009.69;;;8.23;100.00
32033;BME280;31720;52.638;9.216;2023-02-19T13:32:58;101999.72;;;8.41;100.00
32033;BME280;31720;52.638;9.216;2023-02-19T13:36:12;101999.81;;;8.36;100.00
32033;BME280;31720;52.638;9.216;2023-02-19T13:39:15;102000.53;;;8.04;100.00
32033;BME280;31720;52.638;9.216;2023-02-19T13:42:26;101997.41;;;7.88;100.00
32033;BME280;31720;52.638;9.216;2023-02-19T13:45:31;102000.59;;;8.01;100.00
32033;BME280;31720;52.638;9.216;2023-02-19T13:48:35;102004.19;;;7.97;100.00
32033;BME280;31720;52.638;9.216;2023-02-19T13:51:46;102010.97;;;8.05;100.00
32033;BME280;31720;52.638;9.216;2023-02-19T13:54:50;102012.84;;;7.99;100.00
32033;BME280;31720;52.638;9.216;2023-02-19T13:57:51;102019.84;;;7.98;100.00
32033;BME280;31720;52.638;9.216;2023-02-19T14:00:52;102019.78;;;8.01;93.06
32033;BME280;31720;52.638;9.216;2023-02-19T14:04:06;102015.63;;;7.93;92.28
32033;BME280;31720;52.638;9.216;2023-02-19T14:11:00;102018.69;;;7.73;100.00
32033;BME280;31720;52.638;9.216;2023-02-19T14:14:24;102025.91;;;7.60;99.26
32033;BME280;31720;52.638;9.216;2023-02-19T14:17:27;102028.53;;;7.60;97.57
32033;BME280;31720;52.638;9.216;2023-02-19T14:20:42;102029.00;;;7.79;100.00
32033;BME280;31720;52.638;9.216;2023-02-19T14:23:51;102036.75;;;7.83;100.00
32033;BME280;31720;52.638;9.216;2023-02-19T14:26:55;102046.59;;;7.72;100.00
32033;BME280;31720;52.638;9.216;2023-02-19T14:29:57;102031.09;;;7.63;100.00
32033;BME280;31720;52.638;9.216;2023-02-19T14:33:00;102040.53;;;7.70;100.00
32033;BME280;31720;52.638;9.216;2023-02-19T14:36:04;102048.50;;;7.62;100.00
32033;BME280;31720;52.638;9.216;2023-02-19T14:39:11;102052.94;;;7.60;100.00
32033;BME280;31720;52.638;9.216;2023-02-19T14:42:16;102044.38;;;7.52;100.00
32033;BME280;31720;52.638;9.216;2023-02-19T14:45:22;102037.41;;;7.51;100.00
32033;BME280;31720;52.638;9.216;2023-02-19T14:48:28;102029.75;;;7.42;100.00
32033;BME280;31720;52.638;9.216;2023-02-19T14:51:33;102033.22;;;7.43;100.00
32033;BME280;31720;52.638;9.216;2023-02-19T14:54:43;102019.44;;;7.34;100.00
32033;BME280;31720;52.638;9.216;2023-02-19T14:57:49;102019.38;;;7.37;100.00
32033;BME280;31720;52.638;9.216;2023-02-19T15:00:52;102015.72;;;7.45;100.00
32033;BME280;31720;52.638;9.216;2023-02-19T15:03:53;102014.97;;;7.41;100.00
32033;BME280;31720;52.638;9.216;2023-02-19T15:06:56;102007.97;;;7.40;100.00
32033;BME280;31720;52.638;9.216;2023-02-19T15:10:03;101999.22;;;7.43;100.00
32033;BME280;31720;52.638;9.216;2023-02-19T15:13:06;101993.13;;;7.42;100.00
32033;BME280;31720;52.638;9.216;2023-02-19T15:16:16;101995.00;;;7.35;100.00
32033;BME280;31720;52.638;9.216;2023-02-19T15:19:18;102000.22;;;7.37;100.00
32033;BME280;31720;52.638;9.216;2023-02-19T15:22:21;101996.00;;;7.30;100.00
32033;BME280;31720;52.638;9.216;2023-02-19T15:25:28;101998.47;;;7.37;100.00
32033;BME280;31720;52.638;9.216;2023-02-19T15:28:32;101997.72;;;7.31;100.00
32033;BME280;31720;52.638;9.216;2023-02-19T15:31:34;101989.94;;;7.28;100.00
32033;BME280;31720;52.638;9.216;2023-02-19T15:34:35;101988.31;;;7.22;100.00
32033;BME280;31720;52.638;9.216;2023-02-19T15:37:36;101996.16;;;7.22;100.00
32033;BME280;31720;52.638;9.216;2023-02-19T15:40:43;101997.88;;;7.22;100.00
32033;BME280;31720;52.638;9.216;2023-02-19T15:43:48;102001.38;;;7.22;100.00
32033;BME280;31720;52.638;9.216;2023-02-19T15:46:53;102003.13;;;7.22;100.00
32033;BME280;31720;52.638;9.216;2023-02-19T15:49:57;102006.72;;;7.18;100.00
32033;BME280;31720;52.638;9.216;2023-02-19T15:53:01;102013.69;;;7.16;100.00
32033;BME280;31720;52.638;9.216;2023-02-19T15:56:09;102010.28;;;7.12;100.00
32033;BME280;31720;52.638;9.216;2023-02-19T15:59:17;102005.09;;;7.10;100.00
32033;BME280;31720;52.638;9.216;2023-02-19T16:02:21;102015.66;;;7.03;100.00
32033;BME280;31720;52.638;9.216;2023-02-19T16:05:24;102013.22;;;6.94;100.00
32033;BME280;31720;52.638;9.216;2023-02-19T16:08:28;102028.97;;;6.89;100.00
32033;BME280;31720;52.638;9.216;2023-02-19T16:11:35;102026.44;;;6.86;100.00